sensor_id;sensor_type;location;lat;lon;timestamp;P1;durP1;ratioP1;P2;durP2;ratioP2
40198;SDS011;25906;43.536;26.068;2022-11-20T00:02:44;8.50;;;4.90;;
40198;SDS011;25906;43.536;26.068;2022-11-20T00:05:31;14.68;;;5.75;;
40198;SDS011;25906;43.536;26.068;2022-11-20T00:08:17;12.50;;;5.53;;
40198;SDS011;25906;43.536;26.068;2022-11-20T00:11:06;11.55;;;5.47;;
40198;SDS011;25906;43.536;26.068;2022-11-20T00:13:54;9.05;;;5.53;;
40198;SDS011;25906;43.536;26.068;2022-11-20T00:16:42;12.13;;;5.50;;
40198;SDS011;25906;43.536;26.068;2022-11-20T00:19:27;8.55;;;4.97;;
40198;SDS011;25906;43.536;26.068;2022-11-20T00:22:12;9.88;;;5.38;;
40198;SDS011;25906;43.536;26.068;2022-11-20T00:24:58;10.23;;;5.28;;
40198;SDS011;25906;43.536;26.068;2022-11-20T00:27:44;9.80;;;5.43;;
40198;SDS011;25906;43.536;26.068;2022-11-20T00:30:30;14.85;;;5.20;;
40198;SDS011;25906;43.536;26.068;2022-11-20T00:33:15;10.60;;;5.00;;
40198;SDS011;25906;43.536;26.068;2022-11-20T00:36:02;16.75;;;5.40;;
40198;SDS011;25906;43.536;26.068;2022-11-20T00:38:58;9.85;;;5.13;;
40198;SDS011;25906;43.536;26.068;2022-11-20T00:41:44;9.47;;;5.10;;
40198;SDS011;25906;43.536;26.068;2022-11-20T00:44:29;7.57;;;4.97;;
40198;SDS011;25906;43.536;26.068;2022-11-20T00:47:15;10.27;;;4.95;;
40198;SDS011;25906;43.536;26.068;2022-11-20T00:50:00;10.10;;;5.10;;
40198;SDS011;25906;43.536;26.068;2022-11-20T00:52:46;8.23;;;4.75;;
40198;SDS011;25906;43.536;26.068;2022-11-20T00:55:31;9.90;;;4.93;;
40198;SDS011;25906;43.536;26.068;2022-11-20T00:58:17;12.93;;;5.38;;
40198;SDS011;25906;43.536;26.068;2022-11-20T01:01:06;10.07;;;4.70;;
40198;SDS011;25906;43.536;26.068;2022-11-20T01:04:01;8.57;;;4.40;;
40198;SDS011;25906;43.536;26.068;2022-11-20T01:06:47;5.78;;;3.90;;
40198;SDS011;25906;43.536;26.068;2022-11-20T01:09:33;9.15;;;4.30;;
40198;SDS011;25906;43.536;26.068;2022-11-20T01:12:18;8.82;;;4.55;;
40198;SDS011;25906;43.536;26.068;2022-11-20T01:15:04;12.52;;;4.90;;
40198;SDS011;25906;43.536;26.068;2022-11-20T01:20:35;11.88;;;4.20;;
40198;SDS011;25906;43.536;26.068;2022-11-20T01:23:21;10.50;;;3.97;;
40198;SDS011;25906;43.536;26.068;2022-11-20T01:26:08;10.32;;;3.92;;
40198;SDS011;25906;43.536;26.068;2022-11-20T01:28:56;12.45;;;4.03;;
40198;SDS011;25906;43.536;26.068;2022-11-20T01:31:42;10.70;;;4.65;;
40198;SDS011;25906;43.536;26.068;2022-11-20T01:34:28;11.25;;;4.15;;
40198;SDS011;25906;43.536;26.068;2022-11-20T01:37:14;9.48;;;4.03;;
40198;SDS011;25906;43.536;26.068;2022-11-20T01:39:59;8.82;;;3.90;;
40198;SDS011;25906;43.536;26.068;2022-11-20T01:42:47;6.68;;;4.15;;
40198;SDS011;25906;43.536;26.068;2022-11-20T01:46:02;8.35;;;3.47;;
40198;SDS011;25906;43.536;26.068;2022-11-20T01:49:02;7.75;;;3.80;;
40198;SDS011;25906;43.536;26.068;2022-11-20T01:51:53;5.70;;;3.50;;
40198;SDS011;25906;43.536;26.068;2022-11-20T01:54:48;11.55;;;3.85;;
40198;SDS011;25906;43.536;26.068;2022-11-20T01:57:36;12.23;;;4.13;;
40198;SDS011;25906;43.536;26.068;2022-11-20T02:00:23;8.88;;;3.95;;
40198;SDS011;25906;43.536;26.068;2022-11-20T02:03:11;10.05;;;4.45;;
40198;SDS011;25906;43.536;26.068;2022-11-20T02:06:02;7.63;;;4.03;;
40198;SDS011;25906;43.536;26.068;2022-11-20T02:08:53;8.75;;;3.70;;
40198;SDS011;25906;43.536;26.068;2022-11-20T02:11:39;17.98;;;4.80;;
40198;SDS011;25906;43.536;26.068;2022-11-20T02:14:25;13.07;;;4.15;;
40198;SDS011;25906;43.536;26.068;2022-11-20T02:17:12;9.85;;;4.60;;
40198;SDS011;25906;43.536;26.068;2022-11-20T02:19:57;15.70;;;3.70;;
40198;SDS011;25906;43.536;26.068;2022-11-20T02:22:57;9.18;;;4.38;;
40198;SDS011;25906;43.536;26.068;2022-11-20T02:25:47;8.63;;;4.25;;
40198;SDS011;25906;43.536;26.068;2022-11-20T02:28:34;9.57;;;4.00;;
40198;SDS011;25906;43.536;26.068;2022-11-20T02:31:20;10.63;;;4.05;;
40198;SDS011;25906;43.536;26.068;2022-11-20T02:34:06;12.18;;;4.47;;
40198;SDS011;25906;43.536;26.068;2022-11-20T02:36:51;9.50;;;4.07;;
40198;SDS011;25906;43.536;26.068;2022-11-20T02:39:37;11.85;;;4.72;;
40198;SDS011;25906;43.536;26.068;2022-11-20T02:42:24;14.30;;;3.65;;
40198;SDS011;25906;43.536;26.068;2022-11-20T02:45:10;16.25;;;3.92;;
40198;SDS011;25906;43.536;26.068;2022-11-20T02:50:41;9.70;;;3.70;;
40198;SDS011;25906;43.536;26.068;2022-11-20T02:53:27;6.75;;;4.13;;
40198;SDS011;25906;43.536;26.068;2022-11-20T02:56:12;14.25;;;3.90;;
40198;SDS011;25906;43.536;26.068;2022-11-20T02:58:58;8.50;;;3.75;;
40198;SDS011;25906;43.536;26.068;2022-11-20T03:01:43;14.23;;;4.00;;
40198;SDS011;25906;43.536;26.068;2022-11-20T03:04:29;9.07;;;3.97;;
40198;SDS011;25906;43.536;26.068;2022-11-20T03:07:14;18.45;;;3.83;;
40198;SDS011;25906;43.536;26.068;2022-11-20T03:10:00;7.60;;;3.60;;
40198;SDS011;25906;43.536;26.068;2022-11-20T03:12:45;8.50;;;3.72;;
40198;SDS011;25906;43.536;26.068;2022-11-20T03:15:31;7.30;;;3.45;;
40198;SDS011;25906;43.536;26.068;2022-11-20T03:18:16;10.88;;;4.07;;
40198;SDS011;25906;43.536;26.068;2022-11-20T03:21:02;11.90;;;3.50;;
40198;SDS011;25906;43.536;26.068;2022-11-20T03:23:48;14.65;;;3.80;;
40198;SDS011;25906;43.536;26.068;2022-11-20T03:26:34;8.88;;;4.22;;
40198;SDS011;25906;43.536;26.068;2022-11-20T03:29:19;7.97;;;3.83;;
40198;SDS011;25906;43.536;26.068;2022-11-20T03:32:05;13.23;;;4.40;;
40198;SDS011;25906;43.536;26.068;2022-11-20T03:34:50;9.00;;;4.25;;
40198;SDS011;25906;43.536;26.068;2022-11-20T03:37:36;10.25;;;3.70;;
40198;SDS011;25906;43.536;26.068;2022-11-20T03:40:21;7.88;;;3.83;;
40198;SDS011;25906;43.536;26.068;2022-11-20T03:43:09;11.85;;;4.35;;
40198;SDS011;25906;43.536;26.068;2022-11-20T03:45:54;7.90;;;3.92;;
40198;SDS011;25906;43.536;26.068;2022-11-20T03:48:40;12.77;;;4.40;;
40198;SDS011;25906;43.536;26.068;2022-11-20T03:51:29;12.40;;;4.10;;
40198;SDS011;25906;43.536;26.068;2022-11-20T03:54:16;6.65;;;3.90;;
40198;SDS011;25906;43.536;26.068;2022-11-20T03:57:02;8.32;;;4.45;;
40198;SDS011;25906;43.536;26.068;2022-11-20T03:59:47;9.57;;;4.80;;
40198;SDS011;25906;43.536;26.068;2022-11-20T04:02:33;9.00;;;4.50;;
40198;SDS011;25906;43.536;26.068;2022-11-20T04:05:18;7.97;;;4.43;;
40198;SDS011;25906;43.536;26.068;2022-11-20T04:08:04;7.15;;;4.80;;
40198;SDS011;25906;43.536;26.068;2022-11-20T04:13:35;10.80;;;4.63;;
40198;SDS011;25906;43.536;26.068;2022-11-20T04:16:22;12.38;;;5.20;;
40198;SDS011;25906;43.536;26.068;2022-11-20T04:19:10;14.50;;;5.30;;
40198;SDS011;25906;43.536;26.068;2022-11-20T04:21:57;11.25;;;5.50;;
40198;SDS011;25906;43.536;26.068;2022-11-20T04:24:42;10.40;;;5.00;;
40198;SDS011;25906;43.536;26.068;2022-11-20T04:27:28;14.50;;;5.68;;
40198;SDS011;25906;43.536;26.068;2022-11-20T04:30:15;10.98;;;5.70;;
40198;SDS011;25906;43.536;26.068;2022-11-20T04:33:01;18.27;;;5.60;;
40198;SDS011;25906;43.536;26.068;2022-11-20T04:35:47;8.07;;;5.00;;
40198;SDS011;25906;43.536;26.068;2022-11-20T04:38:33;10.00;;;5.40;;
40198;SDS011;25906;43.536;26.068;2022-11-20T04:41:19;8.95;;;5.28;;
40198;SDS011;25906;43.536;26.068;2022-11-20T04:44:08;10.85;;;4.93;;
40198;SDS011;25906;43.536;26.068;2022-11-20T04:46:53;9.07;;;4.80;;
40198;SDS011;25906;43.536;26.068;2022-11-20T04:49:39;7.90;;;5.30;;
40198;SDS011;25906;43.536;26.068;2022-11-20T04:52:24;7.60;;;5.15;;
40198;SDS011;25906;43.536;26.068;2022-11-20T04:55:11;7.38;;;5.10;;
40198;SDS011;25906;43.536;26.068;2022-11-20T04:57:56;10.75;;;4.85;;
40198;SDS011;25906;43.536;26.068;2022-11-20T05:00:44;9.85;;;4.78;;
40198;SDS011;25906;43.536;26.068;2022-11-20T05:03:29;15.73;;;5.50;;
40198;SDS011;25906;43.536;26.068;2022-11-20T05:11:47;15.57;;;4.90;;
40198;SDS011;25906;43.536;26.068;2022-11-20T05:14:33;7.43;;;4.60;;
40198;SDS011;25906;43.536;26.068;2022-11-20T05:17:19;8.63;;;5.10;;
40198;SDS011;25906;43.536;26.068;2022-11-20T05:20:04;11.27;;;5.40;;
40198;SDS011;25906;43.536;26.068;2022-11-20T05:25:35;10.52;;;4.32;;
40198;SDS011;25906;43.536;26.068;2022-11-20T05:28:21;10.57;;;4.97;;
40198;SDS011;25906;43.536;26.068;2022-11-20T05:31:08;7.25;;;4.22;;
40198;SDS011;25906;43.536;26.068;2022-11-20T05:33:58;7.00;;;4.50;;
40198;SDS011;25906;43.536;26.068;2022-11-20T05:36:43;8.48;;;5.22;;
40198;SDS011;25906;43.536;26.068;2022-11-20T05:39:28;7.53;;;5.10;;
40198;SDS011;25906;43.536;26.068;2022-11-20T05:42:14;10.73;;;5.13;;
40198;SDS011;25906;43.536;26.068;2022-11-20T05:45:18;10.13;;;4.40;;
40198;SDS011;25906;43.536;26.068;2022-11-20T05:48:03;7.82;;;4.50;;
40198;SDS011;25906;43.536;26.068;2022-11-20T05:50:49;9.07;;;4.50;;
40198;SDS011;25906;43.536;26.068;2022-11-20T05:53:35;6.32;;;4.40;;
40198;SDS011;25906;43.536;26.068;2022-11-20T05:56:21;9.70;;;4.53;;
40198;SDS011;25906;43.536;26.068;2022-11-20T06:04:09;6.63;;;3.83;;
40198;SDS011;25906;43.536;26.068;2022-11-20T06:06:54;9.43;;;4.40;;
40198;SDS011;25906;43.536;26.068;2022-11-20T06:09:40;12.50;;;5.53;;
40198;SDS011;25906;43.536;26.068;2022-11-20T06:12:25;9.45;;;3.47;;
40198;SDS011;25906;43.536;26.068;2022-11-20T06:15:11;9.43;;;3.28;;
40198;SDS011;25906;43.536;26.068;2022-11-20T06:17:56;7.70;;;3.25;;
40198;SDS011;25906;43.536;26.068;2022-11-20T06:20:41;8.65;;;4.22;;
40198;SDS011;25906;43.536;26.068;2022-11-20T06:23:27;8.82;;;3.97;;
40198;SDS011;25906;43.536;26.068;2022-11-20T06:26:21;4.80;;;2.75;;
40198;SDS011;25906;43.536;26.068;2022-11-20T06:29:08;9.13;;;2.75;;
40198;SDS011;25906;43.536;26.068;2022-11-20T06:31:53;12.73;;;3.22;;
40198;SDS011;25906;43.536;26.068;2022-11-20T06:34:38;7.68;;;3.15;;
40198;SDS011;25906;43.536;26.068;2022-11-20T06:37:24;10.55;;;3.63;;
40198;SDS011;25906;43.536;26.068;2022-11-20T06:40:09;10.15;;;6.47;;
40198;SDS011;25906;43.536;26.068;2022-11-20T06:45:40;13.15;;;9.57;;
40198;SDS011;25906;43.536;26.068;2022-11-20T06:48:26;13.57;;;9.85;;
40198;SDS011;25906;43.536;26.068;2022-11-20T06:51:12;13.48;;;9.25;;
40198;SDS011;25906;43.536;26.068;2022-11-20T06:53:58;16.35;;;10.48;;
40198;SDS011;25906;43.536;26.068;2022-11-20T06:56:47;14.70;;;10.85;;
40198;SDS011;25906;43.536;26.068;2022-11-20T06:59:33;23.70;;;11.85;;
40198;SDS011;25906;43.536;26.068;2022-11-20T07:02:18;29.08;;;11.70;;
40198;SDS011;25906;43.536;26.068;2022-11-20T07:05:04;40.13;;;13.00;;
40198;SDS011;25906;43.536;26.068;2022-11-20T07:07:49;25.08;;;13.15;;
40198;SDS011;25906;43.536;26.068;2022-11-20T07:10:35;43.30;;;12.85;;
40198;SDS011;25906;43.536;26.068;2022-11-20T07:13:21;30.20;;;13.75;;
40198;SDS011;25906;43.536;26.068;2022-11-20T07:16:07;48.17;;;14.10;;
40198;SDS011;25906;43.536;26.068;2022-11-20T07:18:53;43.60;;;13.02;;
40198;SDS011;25906;43.536;26.068;2022-11-20T07:21:38;48.78;;;14.38;;
40198;SDS011;25906;43.536;26.068;2022-11-20T07:24:24;93.18;;;14.98;;
40198;SDS011;25906;43.536;26.068;2022-11-20T07:27:09;49.22;;;15.48;;
40198;SDS011;25906;43.536;26.068;2022-11-20T07:29:54;71.43;;;17.55;;
40198;SDS011;25906;43.536;26.068;2022-11-20T07:32:40;131.10;;;16.60;;
40198;SDS011;25906;43.536;26.068;2022-11-20T07:35:25;79.25;;;16.80;;
40198;SDS011;25906;43.536;26.068;2022-11-20T07:38:11;55.85;;;17.08;;
40198;SDS011;25906;43.536;26.068;2022-11-20T07:40:56;75.00;;;18.83;;
40198;SDS011;25906;43.536;26.068;2022-11-20T07:46:27;104.18;;;17.13;;
40198;SDS011;25906;43.536;26.068;2022-11-20T07:49:13;104.63;;;18.20;;
40198;SDS011;25906;43.536;26.068;2022-11-20T07:51:58;142.02;;;19.08;;
40198;SDS011;25906;43.536;26.068;2022-11-20T07:54:44;98.55;;;17.50;;
40198;SDS011;25906;43.536;26.068;2022-11-20T07:57:29;74.38;;;17.98;;
40198;SDS011;25906;43.536;26.068;2022-11-20T08:03:02;97.30;;;18.33;;
40198;SDS011;25906;43.536;26.068;2022-11-20T08:05:49;118.95;;;17.48;;
40198;SDS011;25906;43.536;26.068;2022-11-20T08:08:34;74.38;;;17.05;;
40198;SDS011;25906;43.536;26.068;2022-11-20T08:11:20;94.80;;;18.27;;
40198;SDS011;25906;43.536;26.068;2022-11-20T08:14:24;69.15;;;16.42;;
40198;SDS011;25906;43.536;26.068;2022-11-20T08:17:09;63.15;;;17.00;;
40198;SDS011;25906;43.536;26.068;2022-11-20T08:19:55;79.35;;;16.33;;
40198;SDS011;25906;43.536;26.068;2022-11-20T08:22:40;79.88;;;17.58;;
40198;SDS011;25906;43.536;26.068;2022-11-20T08:25:26;64.07;;;18.02;;
40198;SDS011;25906;43.536;26.068;2022-11-20T08:28:12;86.47;;;15.77;;
40198;SDS011;25906;43.536;26.068;2022-11-20T08:30:59;96.93;;;15.13;;
40198;SDS011;25906;43.536;26.068;2022-11-20T08:33:45;61.80;;;16.80;;
40198;SDS011;25906;43.536;26.068;2022-11-20T08:36:32;94.32;;;18.30;;
40198;SDS011;25906;43.536;26.068;2022-11-20T08:39:19;80.07;;;18.00;;
40198;SDS011;25906;43.536;26.068;2022-11-20T08:42:08;73.63;;;17.27;;
40198;SDS011;25906;43.536;26.068;2022-11-20T08:44:53;59.30;;;16.73;;
40198;SDS011;25906;43.536;26.068;2022-11-20T08:47:39;38.05;;;17.80;;
40198;SDS011;25906;43.536;26.068;2022-11-20T08:50:24;79.32;;;19.27;;
40198;SDS011;25906;43.536;26.068;2022-11-20T08:53:09;44.67;;;18.05;;
40198;SDS011;25906;43.536;26.068;2022-11-20T08:55:56;48.72;;;18.50;;
40198;SDS011;25906;43.536;26.068;2022-11-20T08:58:42;52.50;;;20.75;;
40198;SDS011;25906;43.536;26.068;2022-11-20T09:01:27;51.60;;;17.88;;
40198;SDS011;25906;43.536;26.068;2022-11-20T09:04:14;34.72;;;17.13;;
40198;SDS011;25906;43.536;26.068;2022-11-20T09:06:59;40.30;;;17.83;;
40198;SDS011;25906;43.536;26.068;2022-11-20T09:09:45;49.35;;;17.85;;
40198;SDS011;25906;43.536;26.068;2022-11-20T09:12:30;35.90;;;18.67;;
40198;SDS011;25906;43.536;26.068;2022-11-20T09:15:16;33.63;;;18.55;;
40198;SDS011;25906;43.536;26.068;2022-11-20T09:18:02;40.78;;;18.63;;
40198;SDS011;25906;43.536;26.068;2022-11-20T09:20:49;39.78;;;17.45;;
40198;SDS011;25906;43.536;26.068;2022-11-20T09:23:35;43.17;;;21.83;;
40198;SDS011;25906;43.536;26.068;2022-11-20T09:26:21;47.83;;;19.30;;
40198;SDS011;25906;43.536;26.068;2022-11-20T09:29:06;49.67;;;22.73;;
40198;SDS011;25906;43.536;26.068;2022-11-20T09:31:52;60.78;;;22.08;;
40198;SDS011;25906;43.536;26.068;2022-11-20T09:34:37;65.18;;;28.63;;
40198;SDS011;25906;43.536;26.068;2022-11-20T09:37:23;59.40;;;25.08;;
40198;SDS011;25906;43.536;26.068;2022-11-20T09:40:27;52.75;;;21.17;;
40198;SDS011;25906;43.536;26.068;2022-11-20T09:50:07;56.83;;;22.88;;
40198;SDS011;25906;43.536;26.068;2022-11-20T09:55:54;34.28;;;18.63;;
40198;SDS011;25906;43.536;26.068;2022-11-20T09:58:41;37.10;;;19.88;;
40198;SDS011;25906;43.536;26.068;2022-11-20T10:01:33;38.92;;;18.48;;
40198;SDS011;25906;43.536;26.068;2022-11-20T10:04:21;35.95;;;17.85;;
40198;SDS011;25906;43.536;26.068;2022-11-20T10:07:11;33.13;;;17.23;;
40198;SDS011;25906;43.536;26.068;2022-11-20T10:10:01;40.55;;;19.90;;
40198;SDS011;25906;43.536;26.068;2022-11-20T10:13:00;33.58;;;19.23;;
40198;SDS011;25906;43.536;26.068;2022-11-20T10:21:41;37.50;;;18.55;;
40198;SDS011;25906;43.536;26.068;2022-11-20T10:30:27;32.10;;;18.08;;
40198;SDS011;25906;43.536;26.068;2022-11-20T10:39:42;25.38;;;14.75;;
40198;SDS011;25906;43.536;26.068;2022-11-20T10:42:41;27.73;;;15.75;;
40198;SDS011;25906;43.536;26.068;2022-11-20T10:48:36;31.58;;;16.13;;
40198;SDS011;25906;43.536;26.068;2022-11-20T10:51:37;27.92;;;16.90;;
40198;SDS011;25906;43.536;26.068;2022-11-20T11:01:17;27.43;;;16.57;;
40198;SDS011;25906;43.536;26.068;2022-11-20T11:04:53;27.95;;;17.80;;
40198;SDS011;25906;43.536;26.068;2022-11-20T11:07:40;28.92;;;17.40;;
40198;SDS011;25906;43.536;26.068;2022-11-20T11:10:32;33.07;;;19.10;;
40198;SDS011;25906;43.536;26.068;2022-11-20T11:13:27;29.98;;;16.95;;
40198;SDS011;25906;43.536;26.068;2022-11-20T11:16:24;32.10;;;18.73;;
40198;SDS011;25906;43.536;26.068;2022-11-20T11:19:11;28.58;;;16.25;;
40198;SDS011;25906;43.536;26.068;2022-11-20T11:21:58;25.73;;;15.38;;
40198;SDS011;25906;43.536;26.068;2022-11-20T11:24:53;33.60;;;17.00;;
40198;SDS011;25906;43.536;26.068;2022-11-20T11:27:48;35.97;;;21.13;;
40198;SDS011;25906;43.536;26.068;2022-11-20T11:30:42;35.42;;;21.85;;
40198;SDS011;25906;43.536;26.068;2022-11-20T11:33:29;28.33;;;15.93;;
40198;SDS011;25906;43.536;26.068;2022-11-20T11:36:17;25.27;;;15.70;;
40198;SDS011;25906;43.536;26.068;2022-11-20T11:39:10;31.13;;;17.67;;
40198;SDS011;25906;43.536;26.068;2022-11-20T11:42:00;30.33;;;17.30;;
40198;SDS011;25906;43.536;26.068;2022-11-20T11:44:49;27.25;;;16.35;;
40198;SDS011;25906;43.536;26.068;2022-11-20T11:47:53;27.83;;;15.18;;
40198;SDS011;25906;43.536;26.068;2022-11-20T11:50:47;27.95;;;16.77;;
40198;SDS011;25906;43.536;26.068;2022-11-20T11:53:34;28.13;;;15.43;;
40198;SDS011;25906;43.536;26.068;2022-11-20T11:56:26;30.23;;;16.60;;
40198;SDS011;25906;43.536;26.068;2022-11-20T11:59:22;29.83;;;16.25;;
40198;SDS011;25906;43.536;26.068;2022-11-20T12:05:25;33.30;;;15.80;;
40198;SDS011;25906;43.536;26.068;2022-11-20T12:11:33;32.40;;;17.17;;
40198;SDS011;25906;43.536;26.068;2022-11-20T12:14:40;28.48;;;16.75;;
40198;SDS011;25906;43.536;26.068;2022-11-20T12:17:28;39.10;;;18.02;;
40198;SDS011;25906;43.536;26.068;2022-11-20T12:20:13;37.70;;;18.90;;
40198;SDS011;25906;43.536;26.068;2022-11-20T12:26:00;34.50;;;18.30;;
40198;SDS011;25906;43.536;26.068;2022-11-20T12:32:13;38.40;;;20.02;;
40198;SDS011;25906;43.536;26.068;2022-11-20T12:35:12;40.17;;;20.67;;
40198;SDS011;25906;43.536;26.068;2022-11-20T12:51:12;37.00;;;19.42;;
40198;SDS011;25906;43.536;26.068;2022-11-20T12:54:29;42.10;;;20.02;;
40198;SDS011;25906;43.536;26.068;2022-11-20T13:00:24;34.20;;;17.83;;
40198;SDS011;25906;43.536;26.068;2022-11-20T13:06:18;33.00;;;16.52;;
40198;SDS011;25906;43.536;26.068;2022-11-20T13:09:04;31.48;;;17.55;;
40198;SDS011;25906;43.536;26.068;2022-11-20T13:12:06;36.45;;;18.20;;
40198;SDS011;25906;43.536;26.068;2022-11-20T13:15:07;37.55;;;18.27;;
40198;SDS011;25906;43.536;26.068;2022-11-20T13:18:00;32.03;;;16.08;;
40198;SDS011;25906;43.536;26.068;2022-11-20T13:20:47;29.33;;;15.70;;
40198;SDS011;25906;43.536;26.068;2022-11-20T13:23:34;27.73;;;15.63;;
40198;SDS011;25906;43.536;26.068;2022-11-20T13:26:20;32.13;;;15.85;;
40198;SDS011;25906;43.536;26.068;2022-11-20T13:29:09;24.20;;;14.60;;
40198;SDS011;25906;43.536;26.068;2022-11-20T13:34:58;30.92;;;15.68;;
40198;SDS011;25906;43.536;26.068;2022-11-20T13:37:46;50.80;;;24.70;;
40198;SDS011;25906;43.536;26.068;2022-11-20T13:40:31;28.40;;;15.98;;
40198;SDS011;25906;43.536;26.068;2022-11-20T13:43:21;26.50;;;14.57;;
40198;SDS011;25906;43.536;26.068;2022-11-20T13:46:21;30.25;;;14.80;;
40198;SDS011;25906;43.536;26.068;2022-11-20T13:49:26;27.33;;;14.93;;
40198;SDS011;25906;43.536;26.068;2022-11-20T13:55:31;19.90;;;12.15;;
40198;SDS011;25906;43.536;26.068;2022-11-20T14:04:06;25.10;;;13.93;;
40198;SDS011;25906;43.536;26.068;2022-11-20T14:06:54;30.40;;;14.98;;
40198;SDS011;25906;43.536;26.068;2022-11-20T14:09:48;32.47;;;15.98;;
40198;SDS011;25906;43.536;26.068;2022-11-20T14:12:43;24.02;;;14.32;;
40198;SDS011;25906;43.536;26.068;2022-11-20T14:15:32;22.33;;;13.25;;
40198;SDS011;25906;43.536;26.068;2022-11-20T14:18:19;24.45;;;13.38;;
40198;SDS011;25906;43.536;26.068;2022-11-20T14:21:08;25.25;;;13.63;;
40198;SDS011;25906;43.536;26.068;2022-11-20T14:24:27;31.10;;;15.43;;
40198;SDS011;25906;43.536;26.068;2022-11-20T14:27:12;25.08;;;14.10;;
40198;SDS011;25906;43.536;26.068;2022-11-20T14:30:00;20.95;;;12.75;;
40198;SDS011;25906;43.536;26.068;2022-11-20T14:32:46;22.98;;;13.57;;
40198;SDS011;25906;43.536;26.068;2022-11-20T14:35:37;23.40;;;12.77;;
40198;SDS011;25906;43.536;26.068;2022-11-20T14:38:31;29.55;;;16.52;;
40198;SDS011;25906;43.536;26.068;2022-11-20T14:41:21;25.48;;;13.88;;
40198;SDS011;25906;43.536;26.068;2022-11-20T14:44:08;31.50;;;16.75;;
40198;SDS011;25906;43.536;26.068;2022-11-20T14:46:55;35.75;;;18.67;;
40198;SDS011;25906;43.536;26.068;2022-11-20T14:49:21;28.77;;;16.20;;
40198;SDS011;25906;43.536;26.068;2022-11-20T14:52:16;26.02;;;14.20;;
40198;SDS011;25906;43.536;26.068;2022-11-20T14:55:03;40.63;;;15.30;;
40198;SDS011;25906;43.536;26.068;2022-11-20T14:57:54;30.45;;;14.88;;
40198;SDS011;25906;43.536;26.068;2022-11-20T15:00:41;20.83;;;11.90;;
40198;SDS011;25906;43.536;26.068;2022-11-20T15:03:36;23.45;;;10.20;;
40198;SDS011;25906;43.536;26.068;2022-11-20T15:06:25;20.50;;;10.10;;
40198;SDS011;25906;43.536;26.068;2022-11-20T15:09:13;15.38;;;8.43;;
40198;SDS011;25906;43.536;26.068;2022-11-20T15:12:00;14.80;;;8.95;;
40198;SDS011;25906;43.536;26.068;2022-11-20T15:14:48;13.15;;;7.15;;
40198;SDS011;25906;43.536;26.068;2022-11-20T15:17:33;18.13;;;9.70;;
40198;SDS011;25906;43.536;26.068;2022-11-20T15:20:24;21.55;;;10.98;;
40198;SDS011;25906;43.536;26.068;2022-11-20T15:23:13;235.52;;;15.18;;
40198;SDS011;25906;43.536;26.068;2022-11-20T15:26:06;169.25;;;13.60;;
40198;SDS011;25906;43.536;26.068;2022-11-20T15:28:52;20.38;;;11.32;;
40198;SDS011;25906;43.536;26.068;2022-11-20T15:34:26;25.67;;;14.18;;
40198;SDS011;25906;43.536;26.068;2022-11-20T15:37:12;20.92;;;12.27;;
40198;SDS011;25906;43.536;26.068;2022-11-20T15:39:58;20.40;;;11.35;;
40198;SDS011;25906;43.536;26.068;2022-11-20T15:42:43;19.42;;;10.57;;
40198;SDS011;25906;43.536;26.068;2022-11-20T15:45:48;13.50;;;7.55;;
40198;SDS011;25906;43.536;26.068;2022-11-20T15:48:38;15.10;;;8.23;;
40198;SDS011;25906;43.536;26.068;2022-11-20T15:54:18;21.98;;;11.90;;
40198;SDS011;25906;43.536;26.068;2022-11-20T15:57:05;14.80;;;8.88;;
40198;SDS011;25906;43.536;26.068;2022-11-20T15:59:51;17.48;;;9.23;;
40198;SDS011;25906;43.536;26.068;2022-11-20T16:02:36;14.48;;;8.40;;
40198;SDS011;25906;43.536;26.068;2022-11-20T16:05:21;11.68;;;7.65;;
40198;SDS011;25906;43.536;26.068;2022-11-20T16:08:08;11.80;;;6.78;;
40198;SDS011;25906;43.536;26.068;2022-11-20T16:10:53;11.93;;;7.28;;
40198;SDS011;25906;43.536;26.068;2022-11-20T16:13:39;17.02;;;9.38;;
40198;SDS011;25906;43.536;26.068;2022-11-20T16:16:43;16.77;;;8.55;;
40198;SDS011;25906;43.536;26.068;2022-11-20T16:19:28;9.63;;;5.32;;
40198;SDS011;25906;43.536;26.068;2022-11-20T16:22:13;7.53;;;5.30;;
40198;SDS011;25906;43.536;26.068;2022-11-20T16:24:59;11.80;;;6.65;;
40198;SDS011;25906;43.536;26.068;2022-11-20T16:27:44;10.70;;;6.00;;
40198;SDS011;25906;43.536;26.068;2022-11-20T16:30:30;10.68;;;6.07;;
40198;SDS011;25906;43.536;26.068;2022-11-20T16:33:17;26.77;;;15.10;;
40198;SDS011;25906;43.536;26.068;2022-11-20T16:36:22;16.23;;;7.70;;
40198;SDS011;25906;43.536;26.068;2022-11-20T16:39:08;26.48;;;7.10;;
40198;SDS011;25906;43.536;26.068;2022-11-20T16:44:39;27.67;;;10.85;;
40198;SDS011;25906;43.536;26.068;2022-11-20T16:47:25;14.88;;;8.68;;
40198;SDS011;25906;43.536;26.068;2022-11-20T16:50:10;39.80;;;9.15;;
40198;SDS011;25906;43.536;26.068;2022-11-20T16:52:56;14.40;;;7.15;;
40198;SDS011;25906;43.536;26.068;2022-11-20T16:55:41;11.05;;;7.25;;
40198;SDS011;25906;43.536;26.068;2022-11-20T16:58:26;8.82;;;5.40;;
40198;SDS011;25906;43.536;26.068;2022-11-20T17:01:13;9.18;;;4.95;;
40198;SDS011;25906;43.536;26.068;2022-11-20T17:04:01;7.53;;;4.97;;
40198;SDS011;25906;43.536;26.068;2022-11-20T17:06:48;11.32;;;7.22;;
40198;SDS011;25906;43.536;26.068;2022-11-20T17:09:33;38.70;;;8.88;;
40198;SDS011;25906;43.536;26.068;2022-11-20T17:12:19;10.45;;;7.10;;
40198;SDS011;25906;43.536;26.068;2022-11-20T17:15:04;11.27;;;7.63;;
40198;SDS011;25906;43.536;26.068;2022-11-20T17:17:50;13.27;;;8.75;;
40198;SDS011;25906;43.536;26.068;2022-11-20T17:20:36;14.60;;;8.82;;
40198;SDS011;25906;43.536;26.068;2022-11-20T17:23:21;36.92;;;17.45;;
40198;SDS011;25906;43.536;26.068;2022-11-20T17:26:11;19.88;;;11.00;;
40198;SDS011;25906;43.536;26.068;2022-11-20T17:29:03;15.32;;;9.18;;
40198;SDS011;25906;43.536;26.068;2022-11-20T17:31:49;14.52;;;9.15;;
40198;SDS011;25906;43.536;26.068;2022-11-20T17:34:35;19.52;;;10.95;;
40198;SDS011;25906;43.536;26.068;2022-11-20T17:37:20;15.23;;;9.63;;
40198;SDS011;25906;43.536;26.068;2022-11-20T17:40:05;18.23;;;10.18;;
40198;SDS011;25906;43.536;26.068;2022-11-20T17:42:51;19.73;;;11.10;;
40198;SDS011;25906;43.536;26.068;2022-11-20T17:45:36;32.42;;;20.67;;
40198;SDS011;25906;43.536;26.068;2022-11-20T17:48:22;25.80;;;14.55;;
40198;SDS011;25906;43.536;26.068;2022-11-20T17:51:08;17.20;;;10.32;;
40198;SDS011;25906;43.536;26.068;2022-11-20T17:53:59;13.40;;;7.68;;
40198;SDS011;25906;43.536;26.068;2022-11-20T17:56:45;12.63;;;7.32;;
40198;SDS011;25906;43.536;26.068;2022-11-20T17:59:50;10.50;;;6.45;;
40198;SDS011;25906;43.536;26.068;2022-11-20T18:02:35;10.30;;;6.75;;
40198;SDS011;25906;43.536;26.068;2022-11-20T18:05:20;8.90;;;6.05;;
40198;SDS011;25906;43.536;26.068;2022-11-20T18:08:06;7.95;;;5.32;;
40198;SDS011;25906;43.536;26.068;2022-11-20T18:10:51;5.47;;;3.70;;
40198;SDS011;25906;43.536;26.068;2022-11-20T18:13:37;6.18;;;4.00;;
40198;SDS011;25906;43.536;26.068;2022-11-20T18:16:46;5.93;;;3.65;;
40198;SDS011;25906;43.536;26.068;2022-11-20T18:19:43;4.25;;;3.15;;
40198;SDS011;25906;43.536;26.068;2022-11-20T18:22:31;5.40;;;3.92;;